createdAt,value
2019-02-11T00:00:13.768Z,86.10
2019-02-11T00:02:42.292Z,85.90
2019-02-11T00:05:10.798Z,85.70
2019-02-11T00:07:39.377Z,85.70
2019-02-11T00:10:07.841Z,85.90
2019-02-11T00:12:36.294Z,86.00
2019-02-11T00:15:05.801Z,86.10
2019-02-11T00:17:34.389Z,86.30
2019-02-11T00:20:02.861Z,86.40
2019-02-11T00:22:31.284Z,86.50
2019-02-11T00:24:59.798Z,87.10
2019-02-11T00:27:28.307Z,86.30
2019-02-11T00:29:56.800Z,86.30
2019-02-11T00:32:25.389Z,86.00
2019-02-11T00:34:53.833Z,85.60
2019-02-11T00:37:22.279Z,85.40
2019-02-11T00:39:50.863Z,85.50
2019-02-11T00:42:19.382Z,85.30
2019-02-11T00:44:47.876Z,85.30
2019-02-11T00:47:16.408Z,85.60
2019-02-11T00:49:44.888Z,85.40
2019-02-11T00:52:13.446Z,85.50
2019-02-11T00:54:41.979Z,85.60
2019-02-11T00:57:10.473Z,85.80
2019-02-11T00:59:38.910Z,86.00
2019-02-11T01:02:07.491Z,86.00
2019-02-11T01:04:35.993Z,85.80
2019-02-11T01:07:04.501Z,85.70
2019-02-11T01:09:33.095Z,86.40
2019-02-11T01:12:01.513Z,85.70
2019-02-11T01:14:30.011Z,85.60
2019-02-11T01:16:58.521Z,85.20
2019-02-11T01:19:27.982Z,84.80
2019-02-11T01:21:56.548Z,84.60
2019-02-11T01:24:25.056Z,84.40
2019-02-11T01:26:53.546Z,84.10
2019-02-11T01:29:21.984Z,83.40
2019-02-11T01:31:50.538Z,83.00
2019-02-11T01:34:18.983Z,82.50
2019-02-11T01:36:47.491Z,82.40
2019-02-11T01:39:16.039Z,82.20
2019-02-11T01:41:44.458Z,81.70
2019-02-11T01:44:12.990Z,82.00
2019-02-11T01:46:41.592Z,82.30
2019-02-11T01:49:10.102Z,82.80
2019-02-11T01:51:38.594Z,83.30
2019-02-11T01:54:08.101Z,83.70
2019-02-11T01:56:38.243Z,84.10
2019-02-11T01:59:07.898Z,84.20
2019-02-11T02:01:36.482Z,84.30
2019-02-11T02:04:04.925Z,84.50
2019-02-11T02:06:33.445Z,84.40
2019-02-11T02:09:01.997Z,84.50
2019-02-11T02:11:30.570Z,84.80
2019-02-11T02:13:59.068Z,84.90
2019-02-11T02:16:27.733Z,84.90
2019-02-11T02:18:56.220Z,84.90
2019-02-11T02:21:24.715Z,85.00
2019-02-11T02:23:53.294Z,85.10
2019-02-11T02:26:21.804Z,85.00
2019-02-11T02:28:50.229Z,84.90
2019-02-11T02:31:18.717Z,85.00
2019-02-11T02:33:47.232Z,84.90
2019-02-11T02:36:15.664Z,85.10
2019-02-11T02:38:44.194Z,85.30
2019-02-11T02:41:12.670Z,85.50
2019-02-11T02:43:41.177Z,85.60
2019-02-11T02:46:09.668Z,85.60
2019-02-11T02:48:38.165Z,85.50
2019-02-11T02:51:18.780Z,85.70
2019-02-11T02:53:47.283Z,85.80
2019-02-11T02:56:15.861Z,86.20
2019-02-11T02:58:44.458Z,86.30
2019-02-11T03:01:12.946Z,86.20
2019-02-11T03:03:41.642Z,86.00
2019-02-11T03:06:10.135Z,85.60
2019-02-11T03:08:50.690Z,85.20
2019-02-11T03:11:19.287Z,84.90
2019-02-11T03:13:47.735Z,84.20
2019-02-11T03:16:16.340Z,83.70
2019-02-11T03:19:04.368Z,83.30
2019-02-11T03:21:32.883Z,82.80
2019-02-11T03:24:01.393Z,82.30
2019-02-11T03:26:29.875Z,82.00
2019-02-11T03:28:58.463Z,81.60
2019-02-11T03:31:27.050Z,81.40
2019-02-11T03:33:55.591Z,81.10
2019-02-11T03:36:24.114Z,80.60
2019-02-11T03:38:52.616Z,80.10
2019-02-11T03:41:21.057Z,80.10
2019-02-11T03:43:49.635Z,80.20
2019-02-11T03:46:18.085Z,80.20
2019-02-11T03:48:46.509Z,79.90
2019-02-11T03:51:15.074Z,79.30
2019-02-11T03:53:44.688Z,78.50
2019-02-11T03:56:13.159Z,78.00
2019-02-11T03:58:41.676Z,77.50
2019-02-11T04:01:10.269Z,76.70
2019-02-11T04:03:38.703Z,76.00
2019-02-11T04:06:07.142Z,75.10
2019-02-11T04:08:35.573Z,73.70
2019-02-11T04:11:04.118Z,72.70
2019-02-11T04:13:32.618Z,71.80
2019-02-11T04:16:01.039Z,71.50
2019-02-11T04:18:29.599Z,71.20
2019-02-11T04:20:58.101Z,71.10
2019-02-11T04:23:26.653Z,70.70
2019-02-11T04:25:55.200Z,70.20
2019-02-11T04:28:23.700Z,69.80
2019-02-11T04:30:52.274Z,69.20
2019-02-11T04:33:20.787Z,68.30
2019-02-11T04:35:49.534Z,67.90
2019-02-11T04:38:18.086Z,67.30
2019-02-11T04:40:47.656Z,66.90
2019-02-11T04:43:16.344Z,67.00
2019-02-11T04:45:44.910Z,67.20
2019-02-11T04:48:13.433Z,67.30
2019-02-11T04:50:41.986Z,67.70
2019-02-11T04:53:10.581Z,67.70
2019-02-11T04:55:58.480Z,66.90
2019-02-11T04:58:26.933Z,66.20
2019-02-11T05:00:55.496Z,65.80
2019-02-11T05:03:24.035Z,65.20
2019-02-11T05:05:52.582Z,64.90
2019-02-11T05:08:21.061Z,64.90
2019-02-11T05:10:50.670Z,64.90
2019-02-11T05:13:19.191Z,65.00
2019-02-11T05:15:48.802Z,65.30
2019-02-11T05:18:17.292Z,65.30
2019-02-11T05:20:45.961Z,65.50
2019-02-11T05:23:14.612Z,65.90
2019-02-11T05:25:43.130Z,66.10
2019-02-11T05:28:11.688Z,66.10
2019-02-11T05:30:40.272Z,65.90
2019-02-11T05:33:08.723Z,65.80
2019-02-11T05:35:37.209Z,65.80
2019-02-11T05:38:05.703Z,66.00
2019-02-11T05:40:34.276Z,66.80
2019-02-11T05:43:02.782Z,66.50
2019-02-11T05:45:31.310Z,66.50
2019-02-11T05:47:59.876Z,66.80
2019-02-11T05:50:28.471Z,66.40
2019-02-11T05:52:56.935Z,66.10
2019-02-11T05:55:26.483Z,65.60
2019-02-11T05:57:55.105Z,65.00
2019-02-11T06:00:23.623Z,64.00
2019-02-11T06:02:52.306Z,63.40
2019-02-11T06:05:21.556Z,63.60
2019-02-11T06:07:50.005Z,63.70
2019-02-11T06:10:18.578Z,63.20
2019-02-11T06:12:47.151Z,62.90
2019-02-11T06:15:15.549Z,62.30
2019-02-11T06:17:44.198Z,62.30
2019-02-11T06:20:12.759Z,62.40
2019-02-11T06:22:41.170Z,62.20
2019-02-11T06:25:11.160Z,62.10
2019-02-11T06:27:39.635Z,62.30
2019-02-11T06:30:13.442Z,62.30
2019-02-11T06:32:41.921Z,62.00
2019-02-11T06:35:10.414Z,61.90
2019-02-11T06:37:38.995Z,61.40
2019-02-11T06:40:09.666Z,60.70
2019-02-11T06:42:38.413Z,60.30
2019-02-11T06:45:13.300Z,60.00
2019-02-11T06:47:39.454Z,59.70
2019-02-11T06:50:13.530Z,59.60
2019-02-11T06:52:42.050Z,59.60
2019-02-11T06:55:11.688Z,59.50
2019-02-11T06:57:40.365Z,59.40
2019-02-11T07:00:13.429Z,59.10
2019-02-11T07:02:41.936Z,59.20
2019-02-11T07:05:10.518Z,58.80
2019-02-11T07:07:38.996Z,58.50
2019-02-11T07:10:10.266Z,58.20
2019-02-11T07:12:38.766Z,57.80
2019-02-11T07:15:12.422Z,57.80
2019-02-11T07:17:40.972Z,57.30
2019-02-11T07:20:10.477Z,56.80
2019-02-11T07:22:38.955Z,56.30
2019-02-11T07:25:08.729Z,56.50
2019-02-11T07:27:37.307Z,56.10
2019-02-11T07:30:09.189Z,55.40
2019-02-11T07:32:37.679Z,54.70
2019-02-11T07:35:06.266Z,54.40
2019-02-11T07:37:34.784Z,54.20
2019-02-11T07:40:04.211Z,53.70
2019-02-11T07:42:46.292Z,52.50
2019-02-11T07:45:29.703Z,52.20
2019-02-11T07:47:52.392Z,53.30
2019-02-11T07:50:20.892Z,54.40
2019-02-11T07:52:49.397Z,55.00
2019-02-11T07:55:17.862Z,54.40
2019-02-11T07:57:46.278Z,53.10
2019-02-11T08:00:14.966Z,51.90
2019-02-11T08:02:43.510Z,51.20
2019-02-11T08:05:12.024Z,51.10
2019-02-11T08:07:40.569Z,51.40
2019-02-11T08:10:09.061Z,51.10
2019-02-11T08:12:37.565Z,51.30
2019-02-11T08:15:08.766Z,51.40
2019-02-11T08:17:37.252Z,51.10
2019-02-11T08:20:07.784Z,51.00
2019-02-11T08:22:36.366Z,51.00
2019-02-11T08:25:05.434Z,50.00
2019-02-11T08:27:33.914Z,49.50
2019-02-11T08:30:02.544Z,48.40
2019-02-11T08:32:31.109Z,46.20
2019-02-11T08:34:59.556Z,45.60
2019-02-11T08:37:28.011Z,45.20
2019-02-11T08:39:56.443Z,44.80
2019-02-11T08:42:24.923Z,44.40
2019-02-11T08:45:12.878Z,44.10
2019-02-11T08:47:47.276Z,44.10
2019-02-11T08:50:15.697Z,43.80
2019-02-11T08:52:44.350Z,43.20
2019-02-11T08:55:12.922Z,42.50
2019-02-11T08:57:41.417Z,42.70
2019-02-11T09:00:11.388Z,42.80
2019-02-11T09:02:39.909Z,42.70
2019-02-11T09:05:08.401Z,42.30
2019-02-11T09:07:36.997Z,42.10
2019-02-11T09:10:10.874Z,42.00
2019-02-11T09:12:39.448Z,41.70
2019-02-11T09:15:23.872Z,41.80
2019-02-11T09:17:52.356Z,41.80
2019-02-11T09:20:20.836Z,42.20
2019-02-11T09:22:49.426Z,42.60
2019-02-11T09:25:17.921Z,43.20
2019-02-11T09:27:46.427Z,43.20
2019-02-11T09:30:16.850Z,43.00
2019-02-11T09:32:45.401Z,42.70
2019-02-11T09:35:13.926Z,42.10
2019-02-11T09:37:42.487Z,42.60
2019-02-11T09:40:13.447Z,43.40
2019-02-11T09:43:01.550Z,43.40
2019-02-11T09:45:30.047Z,43.90
2019-02-11T09:47:58.460Z,44.00
2019-02-11T09:50:40.341Z,43.50
2019-02-11T09:53:08.902Z,43.50
2019-02-11T09:55:37.506Z,42.80
2019-02-11T09:58:05.984Z,42.60
2019-02-11T10:00:34.671Z,42.30
2019-02-11T10:03:03.152Z,41.40
2019-02-11T10:05:31.671Z,40.90
2019-02-11T10:08:00.243Z,40.10
2019-02-11T10:10:28.768Z,39.90
2019-02-11T10:12:57.315Z,40.00
2019-02-11T10:15:25.882Z,39.70
2019-02-11T10:17:54.295Z,40.10
2019-02-11T10:20:22.815Z,40.30
2019-02-11T10:22:51.403Z,40.60
2019-02-11T10:25:22.485Z,41.00
2019-02-11T10:27:51.532Z,41.40
2019-02-11T10:30:20.087Z,41.90
2019-02-11T10:32:48.577Z,41.50
2019-02-11T10:35:17.147Z,41.50
2019-02-11T10:37:45.826Z,42.10
2019-02-11T10:40:14.738Z,42.10
2019-02-11T10:42:43.219Z,42.00
2019-02-11T10:45:17.521Z,42.50
2019-02-11T10:47:47.797Z,42.10
2019-02-11T10:50:21.163Z,41.90
2019-02-11T10:52:49.766Z,42.30
2019-02-11T10:55:20.549Z,41.30
2019-02-11T10:57:49.038Z,41.50
2019-02-11T11:00:25.192Z,41.60
2019-02-11T11:02:53.869Z,41.40
2019-02-11T11:05:22.487Z,40.80
2019-02-11T11:07:50.974Z,40.10
2019-02-11T11:10:28.595Z,38.10
2019-02-11T11:12:57.155Z,35.10
2019-02-11T11:15:25.661Z,33.30
2019-02-11T11:17:54.282Z,32.30
2019-02-11T11:20:22.720Z,31.30
2019-02-11T11:22:51.208Z,30.80
2019-02-11T11:25:19.927Z,30.60
2019-02-11T11:27:48.428Z,30.50
2019-02-11T11:30:38.383Z,30.90
2019-02-11T11:33:06.903Z,31.20
2019-02-11T11:35:55.036Z,31.40
2019-02-11T11:38:23.503Z,32.00
2019-02-11T11:40:52.079Z,31.30
2019-02-11T11:43:20.692Z,30.40
2019-02-11T11:45:49.230Z,29.90
2019-02-11T11:48:17.678Z,30.20
2019-02-11T11:50:46.148Z,30.70
2019-02-11T11:53:14.655Z,30.50
2019-02-11T11:55:43.123Z,30.00
2019-02-11T11:58:11.786Z,29.60
2019-02-11T12:00:40.369Z,29.40
2019-02-11T12:03:08.873Z,29.50
2019-02-11T12:05:38.524Z,29.10
2019-02-11T12:08:06.942Z,28.90
2019-02-11T12:10:35.387Z,28.60
2019-02-11T12:13:21.808Z,28.90
2019-02-11T12:15:34.119Z,28.30
2019-02-11T12:18:02.758Z,28.00
2019-02-11T12:20:33.761Z,28.10
2019-02-11T12:23:02.476Z,27.80
2019-02-11T12:25:30.901Z,27.80
2019-02-11T12:28:00.499Z,28.00
2019-02-11T12:30:30.661Z,28.50
2019-02-11T12:32:59.144Z,28.40
2019-02-11T12:35:27.773Z,28.20
2019-02-11T12:37:56.277Z,26.50
2019-02-11T12:40:24.876Z,25.60
2019-02-11T12:42:54.140Z,25.60
2019-02-11T12:45:24.525Z,25.50
2019-02-11T12:47:53.174Z,25.40
2019-02-11T12:50:21.764Z,25.40
2019-02-11T12:52:50.287Z,25.30
2019-02-11T12:55:19.403Z,24.80
2019-02-11T12:57:47.885Z,24.60
2019-02-11T13:00:20.766Z,22.80
2019-02-11T13:02:49.463Z,20.20
2019-02-11T13:05:44.259Z,18.40
2019-02-11T13:08:00.588Z,18.30
2019-02-11T13:10:29.885Z,19.30
2019-02-11T13:12:58.551Z,20.90
2019-02-11T13:15:56.489Z,22.20
2019-02-11T13:17:57.298Z,22.80
2019-02-11T13:20:25.884Z,22.90
2019-02-11T13:22:54.374Z,23.10
2019-02-11T13:25:22.884Z,23.10
2019-02-11T13:28:03.527Z,23.50
2019-02-11T13:30:32.118Z,23.80
2019-02-11T13:33:00.599Z,23.50
2019-02-11T13:35:29.151Z,23.30
2019-02-11T13:37:57.629Z,23.60
2019-02-11T13:40:26.258Z,23.80
2019-02-11T13:42:54.740Z,24.00
2019-02-11T13:45:23.547Z,23.80
2019-02-11T13:47:57.209Z,23.40
2019-02-11T13:50:24.627Z,23.50
2019-02-11T13:52:53.228Z,23.40
2019-02-11T13:55:21.978Z,23.40
2019-02-11T13:57:50.659Z,23.40
2019-02-11T14:00:22.686Z,23.40
2019-02-11T14:02:54.429Z,23.40
2019-02-11T14:05:43.965Z,23.40
2019-02-11T14:08:12.447Z,23.60
2019-02-11T14:10:40.936Z,23.60
2019-02-11T14:13:09.767Z,23.60
2019-02-11T14:15:38.255Z,23.60
2019-02-11T14:18:13.289Z,23.30
2019-02-11T14:20:39.182Z,23.30
2019-02-11T14:23:07.780Z,23.50
2019-02-11T14:25:44.384Z,23.60
2019-02-11T14:28:06.569Z,23.90
2019-02-11T14:30:35.086Z,23.80
2019-02-11T14:33:03.553Z,23.00
2019-02-11T14:35:32.077Z,22.40
2019-02-11T14:38:02.152Z,22.30
2019-02-11T14:40:30.799Z,22.30
2019-02-11T14:42:59.225Z,22.30
2019-02-11T14:45:27.722Z,22.10
2019-02-11T14:47:56.337Z,22.20
2019-02-11T14:50:24.905Z,21.90
2019-02-11T14:52:53.401Z,21.90
2019-02-11T14:55:22.007Z,22.30
2019-02-11T14:57:50.438Z,22.70
2019-02-11T15:00:20.678Z,21.70
2019-02-11T15:02:49.310Z,20.80
2019-02-11T15:05:18.589Z,20.30
2019-02-11T15:07:47.430Z,20.50
2019-02-11T15:10:16.131Z,19.80
2019-02-11T15:12:44.657Z,19.00
2019-02-11T15:15:13.930Z,18.40
2019-02-11T15:18:01.924Z,18.10
2019-02-11T15:20:30.560Z,17.90
2019-02-11T15:22:59.068Z,17.90
2019-02-11T15:25:27.608Z,18.30
2019-02-11T15:27:56.273Z,18.60
2019-02-11T15:30:24.772Z,18.30
2019-02-11T15:32:53.277Z,17.90
2019-02-11T15:35:21.765Z,17.50
2019-02-11T15:37:50.202Z,17.30
2019-02-11T15:40:21.042Z,17.40
2019-02-11T15:42:50.538Z,17.50
2019-02-11T15:45:19.091Z,17.60
2019-02-11T15:47:47.657Z,17.90
2019-02-11T15:50:17.615Z,17.50
2019-02-11T15:52:46.203Z,18.40
2019-02-11T15:55:17.649Z,19.20
2019-02-11T15:57:46.084Z,19.20
2019-02-11T16:00:16.581Z,18.70
2019-02-11T16:02:45.100Z,18.50
2019-02-11T16:05:16.695Z,18.80
2019-02-11T16:07:43.861Z,19.60
2019-02-11T16:10:21.124Z,20.40
2019-02-11T16:12:49.573Z,21.10
2019-02-11T16:15:19.304Z,21.70
2019-02-11T16:17:48.002Z,22.20
2019-02-11T16:20:16.483Z,22.40
2019-02-11T16:22:44.967Z,22.60
2019-02-11T16:25:17.356Z,22.70
2019-02-11T16:27:45.900Z,22.80
2019-02-11T16:30:17.123Z,22.80
2019-02-11T16:32:45.656Z,23.10
2019-02-11T16:35:15.909Z,23.10
2019-02-11T16:37:44.535Z,23.40
2019-02-11T16:40:19.190Z,24.00
2019-02-11T16:42:47.792Z,23.90
2019-02-11T16:45:16.482Z,24.20
2019-02-11T16:47:45.048Z,24.30
2019-02-11T16:50:13.852Z,24.40
2019-02-11T16:52:42.513Z,25.00
2019-02-11T16:55:13.951Z,24.50
2019-02-11T16:58:01.939Z,24.30
2019-02-11T17:00:30.580Z,24.40
2019-02-11T17:02:59.163Z,24.60
2019-02-11T17:05:27.812Z,24.70
2019-02-11T17:07:56.287Z,24.90
2019-02-11T17:10:24.816Z,25.10
2019-02-11T17:12:53.379Z,25.30
2019-02-11T17:15:21.810Z,25.50
2019-02-11T17:17:50.357Z,25.70
2019-02-11T17:20:18.896Z,25.90
2019-02-11T17:22:47.545Z,26.10
2019-02-11T17:25:15.952Z,26.20
2019-02-11T17:27:44.593Z,26.40
2019-02-11T17:30:25.105Z,26.60
2019-02-11T17:32:53.638Z,26.60
2019-02-11T17:35:22.153Z,26.50
2019-02-11T17:37:50.685Z,26.60
2019-02-11T17:40:20.289Z,26.70
2019-02-11T17:42:48.701Z,26.80
2019-02-11T17:45:23.226Z,26.90
2019-02-11T17:47:51.731Z,27.10
2019-02-11T17:50:20.219Z,27.10
2019-02-11T17:52:50.381Z,27.00
2019-02-11T17:55:18.985Z,26.90
2019-02-11T17:57:47.619Z,26.90
2019-02-11T18:00:32.976Z,26.90
2019-02-11T18:03:01.479Z,27.00
2019-02-11T18:05:30.122Z,27.00
2019-02-11T18:07:58.698Z,27.00
2019-02-11T18:10:27.203Z,27.00
2019-02-11T18:12:55.911Z,27.20
2019-02-11T18:15:24.653Z,27.30
2019-02-11T18:17:53.282Z,27.30
2019-02-11T18:20:22.966Z,27.40
2019-02-11T18:22:51.549Z,27.60
2019-02-11T18:25:20.134Z,27.70
2019-02-11T18:27:48.760Z,27.80
2019-02-11T18:30:17.262Z,28.00
2019-02-11T18:32:45.735Z,28.30
2019-02-11T18:35:17.042Z,28.60
2019-02-11T18:37:45.534Z,28.90
2019-02-11T18:40:26.434Z,29.20
2019-02-11T18:42:55.032Z,29.40
2019-02-11T18:45:23.437Z,29.60
2019-02-11T18:47:51.971Z,29.80
2019-02-11T18:50:20.499Z,29.80
2019-02-11T18:52:49.074Z,29.90
2019-02-11T18:55:19.914Z,29.90
2019-02-11T18:57:48.536Z,29.90
2019-02-11T19:00:21.113Z,29.90
2019-02-11T19:02:49.661Z,29.90
2019-02-11T19:05:18.301Z,30.00
2019-02-11T19:07:46.836Z,30.00
2019-02-11T19:10:17.050Z,30.20
2019-02-11T19:12:45.656Z,30.30
2019-02-11T19:15:15.575Z,30.30
2019-02-11T19:17:44.123Z,30.30
2019-02-11T19:20:19.595Z,30.30
2019-02-11T19:22:48.072Z,30.30
2019-02-11T19:25:16.556Z,30.30
2019-02-11T19:27:45.039Z,30.20
2019-02-11T19:30:22.723Z,30.40
2019-02-11T19:32:51.397Z,30.40
2019-02-11T19:35:20.024Z,30.50
2019-02-11T19:37:48.565Z,30.70
2019-02-11T19:40:18.663Z,30.90
2019-02-11T19:42:47.188Z,31.10
2019-02-11T19:45:20.511Z,31.40
2019-02-11T19:47:49.061Z,31.70
2019-02-11T19:50:18.208Z,32.50
2019-02-11T19:52:47.042Z,32.00
2019-02-11T19:55:16.527Z,32.20
2019-02-11T19:57:45.073Z,32.20
2019-02-11T20:00:20.742Z,32.30
2019-02-11T20:02:49.953Z,32.40
2019-02-11T20:05:18.675Z,32.50
2019-02-11T20:07:47.161Z,32.70
2019-02-11T20:10:18.249Z,32.80
2019-02-11T20:12:46.870Z,33.60
2019-02-11T20:15:17.897Z,33.00
2019-02-11T20:17:46.440Z,33.10
2019-02-11T20:20:20.342Z,33.10
2019-02-11T20:22:48.935Z,33.20
2019-02-11T20:25:18.475Z,33.30
2019-02-11T20:28:06.400Z,33.50
2019-02-11T20:30:35.166Z,33.40
2019-02-11T20:33:04.565Z,33.50
2019-02-11T20:35:33.111Z,33.60
2019-02-11T20:38:01.945Z,33.70
2019-02-11T20:40:30.577Z,33.80
2019-02-11T20:42:59.083Z,33.80
2019-02-11T20:45:30.654Z,34.70
2019-02-11T20:47:59.050Z,34.10
2019-02-11T20:50:27.714Z,34.20
2019-02-11T20:52:56.209Z,34.20
2019-02-11T20:55:25.013Z,34.20
2019-02-11T20:57:56.523Z,34.10
2019-02-11T21:00:26.059Z,34.10
2019-02-11T21:02:54.860Z,34.00
2019-02-11T21:05:23.834Z,33.90
2019-02-11T21:07:52.532Z,33.90
2019-02-11T21:10:23.878Z,33.60
2019-02-11T21:13:01.583Z,33.70
2019-02-11T21:15:30.262Z,33.70
2019-02-11T21:17:58.646Z,33.70
2019-02-11T21:20:33.242Z,33.80
2019-02-11T21:23:01.953Z,33.70
2019-02-11T21:25:30.423Z,33.70
2019-02-11T21:27:58.910Z,33.70
2019-02-11T21:30:28.604Z,33.60
2019-02-11T21:32:57.302Z,33.40
2019-02-11T21:35:25.754Z,33.40
2019-02-11T21:37:54.360Z,33.40
2019-02-11T21:40:22.913Z,33.40
2019-02-11T21:42:51.478Z,33.50
2019-02-11T21:45:20.078Z,33.60
2019-02-11T21:47:48.591Z,33.60
2019-02-11T21:50:26.831Z,33.60
2019-02-11T21:52:51.379Z,33.70
2019-02-11T21:55:21.513Z,33.80
2019-02-11T21:57:50.077Z,33.70
2019-02-11T22:00:24.396Z,33.80
2019-02-11T22:02:52.817Z,33.80
2019-02-11T22:05:21.369Z,34.00
2019-02-11T22:07:49.893Z,34.20
2019-02-11T22:10:20.570Z,34.20
2019-02-11T22:12:49.159Z,34.40
2019-02-11T22:15:17.639Z,34.60
2019-02-11T22:17:46.120Z,34.80
2019-02-11T22:20:21.738Z,35.10
2019-02-11T22:22:50.270Z,35.20
2019-02-11T22:25:18.721Z,35.40
2019-02-11T22:27:47.580Z,35.50
2019-02-11T22:30:18.106Z,35.50
2019-02-11T22:32:46.659Z,35.50
2019-02-11T22:35:15.307Z,35.50
2019-02-11T22:37:43.892Z,35.50
2019-02-11T22:40:14.199Z,35.40
2019-02-11T22:42:42.798Z,35.20
2019-02-11T22:45:14.110Z,35.20
2019-02-11T22:47:42.797Z,35.20
2019-02-11T22:50:12.915Z,35.20
2019-02-11T22:52:41.600Z,35.30
2019-02-11T22:55:12.055Z,35.30
2019-02-11T22:57:40.517Z,35.20
2019-02-11T23:00:15.128Z,35.20
2019-02-11T23:02:43.648Z,35.20
2019-02-11T23:05:12.073Z,35.10
2019-02-11T23:07:40.674Z,35.00
2019-02-11T23:10:09.242Z,34.90
2019-02-11T23:12:37.738Z,34.80
2019-02-11T23:15:08.712Z,34.50
2019-02-11T23:17:37.248Z,34.40
2019-02-11T23:20:07.480Z,34.30
2019-02-11T23:22:35.874Z,34.20
2019-02-11T23:25:04.774Z,34.20
2019-02-11T23:27:33.231Z,34.10
2019-02-11T23:30:01.738Z,34.00
2019-02-11T23:32:30.315Z,33.90
2019-02-11T23:34:58.732Z,33.80
2019-02-11T23:37:27.365Z,34.10
2019-02-11T23:39:55.920Z,33.60
2019-02-11T23:42:24.513Z,33.60
2019-02-11T23:44:53.247Z,33.70
2019-02-11T23:47:22.220Z,33.70
2019-02-11T23:49:50.752Z,33.80
2019-02-11T23:52:19.522Z,33.90
2019-02-11T23:54:49.080Z,34.00
2019-02-11T23:57:17.450Z,34.10
2019-02-11T23:59:45.965Z,34.30
